Time;durP1;ratioP1;P1;durP2;ratioP2;P2;SDS_P1;SDS_P2;PMS_P1;PMS_P2;Temp;Humidity;BMP_temperature;BMP_pressure;BME280_temperature;BME280_humidity;BME280_pressure;Samples;Min_cycle;Max_cycle;Signal;HPM_P1;HPM_P2
2021/06/28 00:01:05;;;;;;;3.20;2.40;;;22.20;98.80;;;;;;6128957;23;20415;-86
2021/06/28 00:03:32;;;;;;;4.07;2.43;;;22.00;99.90;;;;;;6128137;23;20451;-86
2021/06/28 00:05:59;;;;;;;1.73;1.63;;;21.80;99.90;;;;;;6127015;23;20407;-86
2021/06/28 00:08:25;;;;;;;2.20;1.97;;;21.70;99.90;;;;;;6128450;23;20427;-86
2021/06/28 00:10:52;;;;;;;2.23;1.93;;;21.70;99.90;;;;;;6125672;23;20460;-87
2021/06/28 00:13:19;;;;;;;2.50;2.30;;;21.70;99.90;;;;;;6128310;23;20443;-89
2021/06/28 00:15:48;;;;;;;4.37;2.60;;;21.60;99.90;;;;;;6126842;23;20743;-89
2021/06/28 00:18:16;;;;;;;2.80;2.60;;;21.60;99.90;;;;;;6128234;23;20412;-88
2021/06/28 00:20:43;;;;;;;2.67;2.47;;;21.60;99.90;;;;;;6127273;23;20427;-88
2021/06/28 00:23:10;;;;;;;2.97;2.47;;;21.50;99.90;;;;;;6134234;23;20408;-88
2021/06/28 00:25:38;;;;;;;2.27;2.10;;;21.30;99.90;;;;;;6138611;23;20408;-88
2021/06/28 00:28:06;;;;;;;2.60;2.40;;;21.30;99.90;;;;;;6134832;23;20403;-89
2021/06/28 00:30:36;;;;;;;3.13;2.63;;;21.20;99.90;;;;;;6139517;23;20427;-89
2021/06/28 00:33:05;;;;;;;3.30;2.83;;;21.20;99.90;;;;;;6140860;23;20486;-89
2021/06/28 00:35:32;;;;;;;2.30;2.10;;;21.20;99.90;;;;;;6143103;23;20379;-89
2021/06/28 00:37:59;;;;;;;3.50;3.20;;;21.30;99.90;;;;;;6139778;23;20414;-89
2021/06/28 00:40:26;;;;;;;2.70;2.40;;;21.20;99.90;;;;;;6130086;23;20427;-89
2021/06/28 00:42:53;;;;;;;2.60;2.40;;;21.20;99.90;;;;;;6134362;23;20403;-89
2021/06/28 00:45:22;;;;;;;2.80;2.40;;;21.30;99.90;;;;;;6137579;23;20402;-89
2021/06/28 00:47:50;;;;;;;4.33;2.60;;;21.40;99.90;;;;;;6143887;23;20418;-89
2021/06/28 00:50:22;;;;;;;3.00;2.80;;;21.40;99.90;;;;;;6145269;23;20441;-89
2021/06/28 00:52:53;;;;;;;3.40;3.10;;;21.40;99.90;;;;;;6145036;23;20434;-89
2021/06/28 00:55:20;;;;;;;3.70;3.40;;;21.50;99.90;;;;;;6132909;23;20867;-89
2021/06/28 00:57:47;;;;;;;4.10;3.00;;;21.40;99.90;;;;;;6135049;23;20418;-88
2021/06/28 01:00:15;;;;;;;3.90;3.60;;;21.40;99.90;;;;;;6153000;23;20431;-89
2021/06/28 01:02:42;;;;;;;3.20;3.00;;;21.40;99.90;;;;;;6153256;23;20391;-88
2021/06/28 01:05:12;;;;;;;4.70;3.40;;;21.40;99.90;;;;;;6152542;23;20414;-88
2021/06/28 01:07:40;;;;;;;4.43;3.73;;;21.40;99.90;;;;;;6150379;23;20376;-88
2021/06/28 01:10:09;;;;;;;4.33;3.77;;;21.40;99.90;;;;;;6155562;23;20416;-89
2021/06/28 01:12:36;;;;;;;4.20;3.73;;;21.40;99.90;;;;;;6151213;23;20437;-89
2021/06/28 01:15:05;;;;;;;4.37;3.97;;;21.30;99.90;;;;;;6135501;23;20434;-89
2021/06/28 01:17:32;;;;;;;4.23;3.93;;;21.30;99.90;;;;;;6129765;23;20430;-88
2021/06/28 01:20:02;;;;;;;5.40;3.83;;;21.30;99.90;;;;;;6130130;23;20434;-89
2021/06/28 01:22:33;;;;;;;3.73;3.43;;;21.30;99.90;;;;;;6129734;23;20397;-88
2021/06/28 01:25:02;;;;;;;4.03;3.70;;;21.40;99.90;;;;;;6129596;23;20394;-88
2021/06/28 01:27:30;;;;;;;5.33;3.73;;;21.40;99.90;;;;;;6143676;23;20405;-88
2021/06/28 01:29:57;;;;;;;4.20;3.90;;;21.40;99.90;;;;;;6136082;23;20435;-88
2021/06/28 01:32:25;;;;;;;4.20;3.80;;;21.30;99.90;;;;;;6129342;23;20441;-88
2021/06/28 01:34:52;;;;;;;4.80;3.67;;;21.30;99.90;;;;;;6128939;23;20404;-89
2021/06/28 01:37:24;;;;;;;4.50;4.00;;;21.40;99.90;;;;;;6130596;23;20410;-89
2021/06/28 01:39:53;;;;;;;4.67;4.23;;;21.40;99.90;;;;;;6143241;23;20412;-88
2021/06/28 01:42:22;;;;;;;5.00;4.60;;;21.30;99.90;;;;;;6134425;23;20399;-91
2021/06/28 01:44:49;;;;;;;4.10;3.70;;;21.40;99.90;;;;;;6140642;23;20415;-89
2021/06/28 01:47:15;;;;;;;4.20;3.80;;;21.30;99.90;;;;;;6132577;23;20410;-89
2021/06/28 01:49:42;;;;;;;4.40;4.10;;;21.30;99.90;;;;;;6128343;23;20804;-90
2021/06/28 01:52:10;;;;;;;4.10;3.80;;;21.20;99.90;;;;;;6127566;23;20441;-89
2021/06/28 01:54:37;;;;;;;4.77;4.37;;;21.30;99.90;;;;;;6126990;23;20403;-89
2021/06/28 01:57:06;;;;;;;4.80;4.30;;;21.30;99.90;;;;;;6126264;23;20950;-89
2021/06/28 01:59:35;;;;;;;4.60;4.27;;;21.30;99.90;;;;;;6126987;23;20428;-89
2021/06/28 02:02:04;;;;;;;5.10;4.27;;;21.30;99.90;;;;;;6126247;23;20934;-89
2021/06/28 02:04:31;;;;;;;6.17;4.50;;;21.40;99.90;;;;;;6126640;23;20485;-89
2021/06/28 02:06:59;;;;;;;4.33;4.03;;;21.30;99.90;;;;;;6127608;23;20935;-88
2021/06/28 02:09:29;;;;;;;4.00;3.70;;;21.40;99.90;;;;;;6126428;23;21006;-89
2021/06/28 02:11:56;;;;;;;5.23;4.73;;;21.40;99.90;;;;;;6126228;23;20843;-88
2021/06/28 02:14:23;;;;;;;5.60;4.60;;;21.40;99.90;;;;;;6126595;23;20443;-89
2021/06/28 02:16:51;;;;;;;5.67;5.10;;;21.40;99.90;;;;;;6128761;23;20438;-88
2021/06/28 02:19:19;;;;;;;4.43;4.10;;;21.40;99.90;;;;;;6127510;23;20435;-88
2021/06/28 02:21:48;;;;;;;5.10;4.27;;;21.30;99.90;;;;;;6128282;23;20406;-89
2021/06/28 02:24:15;;;;;;;6.57;4.20;;;21.30;99.90;;;;;;6135958;23;20400;-88
2021/06/28 02:26:44;;;;;;;4.80;4.40;;;21.30;99.90;;;;;;6140105;23;20461;-88
2021/06/28 02:29:10;;;;;;;4.67;4.13;;;21.30;99.90;;;;;;6131071;23;20427;-89
2021/06/28 02:31:37;;;;;;;4.20;3.80;;;21.20;99.90;;;;;;6127498;23;20422;-90
2021/06/28 02:34:06;;;;;;;5.20;4.40;;;21.30;99.90;;;;;;6126303;23;20436;-89
2021/06/28 02:36:32;;;;;;;5.10;4.70;;;21.30;99.90;;;;;;6125370;23;20408;-88
2021/06/28 02:39:01;;;;;;;5.13;4.73;;;21.40;99.90;;;;;;6125608;23;20415;-89
2021/06/28 02:41:28;;;;;;;6.40;4.27;;;21.40;99.90;;;;;;6126845;23;20399;-89
2021/06/28 02:43:56;;;;;;;4.27;3.73;;;21.40;99.90;;;;;;6134347;23;20399;-89
2021/06/28 02:46:24;;;;;;;3.50;3.20;;;21.40;99.90;;;;;;6151855;23;20402;-89
2021/06/28 02:48:52;;;;;;;3.60;3.40;;;21.40;99.90;;;;;;6141687;23;20400;-88
2021/06/28 02:51:20;;;;;;;4.73;4.33;;;21.40;99.90;;;;;;6135847;23;20411;-89
2021/06/28 02:53:47;;;;;;;4.13;3.40;;;21.30;99.90;;;;;;6127220;23;20442;-88
2021/06/28 02:56:15;;;;;;;5.30;4.23;;;21.40;99.90;;;;;;6127743;23;20412;-88
2021/06/28 02:58:43;;;;;;;3.93;3.53;;;21.30;99.90;;;;;;6126981;23;20422;-88
2021/06/28 03:01:10;;;;;;;4.10;3.77;;;21.30;99.90;;;;;;6127755;23;20431;-89
2021/06/28 03:03:37;;;;;;;3.90;3.47;;;21.40;99.90;;;;;;6129965;23;20415;-89
2021/06/28 03:06:04;;;;;;;3.23;2.93;;;21.30;99.90;;;;;;6128891;23;20395;-89
2021/06/28 03:08:32;;;;;;;4.53;4.00;;;21.30;99.90;;;;;;6143893;23;20391;-88
2021/06/28 03:11:01;;;;;;;4.20;3.80;;;21.40;99.90;;;;;;6150086;23;20426;-88
2021/06/28 03:13:29;;;;;;;4.30;3.20;;;21.40;99.90;;;;;;6133635;23;20454;-88
2021/06/28 03:15:56;;;;;;;3.57;3.27;;;21.40;99.90;;;;;;6136489;23;20408;-88
2021/06/28 03:18:23;;;;;;;5.00;3.77;;;21.50;99.90;;;;;;6142121;23;20411;-89
2021/06/28 03:20:49;;;;;;;3.47;3.27;;;21.50;99.90;;;;;;6133432;23;20442;-89
2021/06/28 03:23:16;;;;;;;4.33;3.97;;;21.40;99.90;;;;;;6128936;23;20412;-88
2021/06/28 03:25:44;;;;;;;4.33;3.80;;;21.40;99.90;;;;;;6130016;23;20420;-89
2021/06/28 03:28:11;;;;;;;3.97;3.67;;;21.40;99.90;;;;;;6137577;23;20410;-90
2021/06/28 03:30:38;;;;;;;4.57;4.17;;;21.30;99.90;;;;;;6149163;23;20420;-89
2021/06/28 03:33:05;;;;;;;4.50;4.20;;;21.40;99.90;;;;;;6146818;23;20447;-89
2021/06/28 03:35:32;;;;;;;4.50;4.20;;;21.30;99.90;;;;;;6135300;23;20408;-89
2021/06/28 03:37:59;;;;;;;4.10;3.80;;;21.40;99.90;;;;;;6130417;23;20421;-88
2021/06/28 03:40:26;;;;;;;4.20;3.90;;;21.40;99.90;;;;;;6148808;23;20425;-87
2021/06/28 03:42:54;;;;;;;4.20;3.90;;;21.40;99.90;;;;;;6131296;23;20435;-88
2021/06/28 03:45:21;;;;;;;4.50;3.87;;;21.40;99.90;;;;;;6132417;23;20693;-90
2021/06/28 03:47:48;;;;;;;4.23;3.87;;;21.30;99.90;;;;;;6129716;23;20408;-88
2021/06/28 03:50:15;;;;;;;4.40;4.00;;;21.20;99.90;;;;;;6132446;23;20470;-88
2021/06/28 03:52:42;;;;;;;3.90;3.60;;;21.20;99.90;;;;;;6129741;23;20419;-88
2021/06/28 03:55:10;;;;;;;4.53;4.13;;;21.10;99.90;;;;;;6133270;23;20930;-89
2021/06/28 03:57:37;;;;;;;7.90;5.30;;;21.00;99.90;;;;;;6127516;23;20889;-90
2021/06/28 04:00:09;;;;;;;4.30;3.90;;;21.00;99.90;;;;;;6126610;23;20434;-88
2021/06/28 04:02:41;;;;;;;6.00;4.50;;;21.10;99.90;;;;;;6126713;23;20389;-88
2021/06/28 04:05:09;;;;;;;5.47;5.00;;;21.20;99.90;;;;;;6126374;23;20402;-88
2021/06/28 04:07:36;;;;;;;6.70;4.60;;;21.20;99.90;;;;;;6128265;23;20758;-88
2021/06/28 04:10:04;;;;;;;5.60;5.10;;;21.20;99.90;;;;;;6144760;23;20435;-89
2021/06/28 04:12:31;;;;;;;8.50;4.57;;;21.20;99.90;;;;;;6127591;23;20430;-89
2021/06/28 04:14:58;;;;;;;4.60;4.20;;;21.20;99.90;;;;;;6126371;23;20435;-89
2021/06/28 04:17:26;;;;;;;9.03;4.97;;;21.20;99.90;;;;;;6146524;23;20417;-89
2021/06/28 04:19:53;;;;;;;6.10;5.30;;;21.20;99.90;;;;;;6127532;23;20431;-88
2021/06/28 04:22:19;;;;;;;9.40;4.60;;;21.30;99.90;;;;;;6125218;23;20423;-88
2021/06/28 04:24:46;;;;;;;8.80;4.90;;;21.30;99.90;;;;;;6136069;23;20399;-88
2021/06/28 04:27:13;;;;;;;8.40;5.43;;;21.30;99.90;;;;;;6135408;23;20423;-89
2021/06/28 04:29:40;;;;;;;8.20;4.87;;;21.40;99.90;;;;;;6128753;23;20434;-89
2021/06/28 04:32:07;;;;;;;7.63;5.40;;;21.40;99.90;;;;;;6127031;23;20396;-89
2021/06/28 04:34:35;;;;;;;11.00;5.90;;;21.50;99.90;;;;;;6126392;23;20443;-88
2021/06/28 04:37:02;;;;;;;9.07;6.90;;;21.60;99.90;;;;;;6126085;23;20396;-88
2021/06/28 04:39:29;;;;;;;5.20;4.70;;;21.70;99.90;;;;;;6126551;23;20423;-89
2021/06/28 04:41:55;;;;;;;8.00;6.20;;;21.70;99.90;;;;;;6137786;23;20407;-88
2021/06/28 04:44:22;;;;;;;8.30;7.07;;;21.50;99.90;;;;;;6147828;23;20389;-88
2021/06/28 04:46:49;;;;;;;7.53;6.70;;;21.50;99.90;;;;;;6147432;23;20475;-89
2021/06/28 04:49:15;;;;;;;6.57;5.97;;;21.50;99.90;;;;;;6149504;23;20438;-87
2021/06/28 04:51:44;;;;;;;6.73;6.13;;;21.50;99.90;;;;;;6152079;23;20433;-89
2021/06/28 04:54:10;;;;;;;6.30;5.80;;;21.40;99.90;;;;;;6151304;23;20439;-89
2021/06/28 04:56:37;;;;;;;9.67;5.53;;;21.40;99.90;;;;;;6144970;23;20447;-90
2021/06/28 04:59:04;;;;;;;7.93;5.53;;;21.40;99.90;;;;;;6140206;23;20410;-90
2021/06/28 05:01:31;;;;;;;7.90;5.77;;;21.40;99.90;;;;;;6135716;23;20501;-89
2021/06/28 05:03:57;;;;;;;8.27;7.03;;;21.30;99.90;;;;;;6133802;23;20403;-89
2021/06/28 05:06:24;;;;;;;8.70;8.00;;;21.30;99.90;;;;;;6134105;23;20412;-89
2021/06/28 05:08:52;;;;;;;8.50;7.80;;;21.30;99.90;;;;;;6143227;23;20396;-90
2021/06/28 05:11:20;;;;;;;9.03;6.80;;;21.20;99.90;;;;;;6143965;23;20407;-89
2021/06/28 05:13:46;;;;;;;6.93;6.23;;;21.30;99.90;;;;;;6152789;23;20506;-90
2021/06/28 05:16:13;;;;;;;8.30;5.50;;;21.30;99.90;;;;;;6131282;23;20466;-89
2021/06/28 05:18:40;;;;;;;5.40;5.00;;;21.40;99.90;;;;;;6123800;23;20414;-89
2021/06/28 05:21:06;;;;;;;7.53;6.30;;;21.40;99.90;;;;;;6129478;23;20435;-89
2021/06/28 05:23:33;;;;;;;10.53;6.50;;;21.50;99.90;;;;;;6131778;23;20423;-88
2021/06/28 05:26:02;;;;;;;8.20;6.80;;;21.60;99.90;;;;;;6129383;23;20766;-87
2021/06/28 05:28:28;;;;;;;6.53;5.93;;;22.00;99.90;;;;;;6147890;23;20416;-89
2021/06/28 05:30:56;;;;;;;6.93;6.10;;;22.50;99.90;;;;;;6130881;23;20430;-89
2021/06/28 05:33:22;;;;;;;6.03;5.43;;;22.80;99.90;;;;;;6127239;23;20410;-89
2021/06/28 05:35:49;;;;;;;6.73;6.00;;;23.40;99.90;;;;;;6143459;23;20442;-87
2021/06/28 05:38:17;;;;;;;5.60;5.10;;;24.10;99.90;;;;;;6139991;23;20417;-89
2021/06/28 05:40:43;;;;;;;5.27;4.87;;;24.80;99.90;;;;;;6126802;23;20435;-89
2021/06/28 05:43:11;;;;;;;5.60;5.10;;;25.50;99.90;;;;;;6138769;23;20396;-88
2021/06/28 05:45:41;;;;;;;6.27;4.53;;;26.10;99.90;;;;;;6142347;23;20404;-88
2021/06/28 05:48:09;;;;;;;4.43;4.13;;;26.80;98.40;;;;;;6133747;23;20848;-90
2021/06/28 05:50:36;;;;;;;5.27;4.83;;;27.30;97.00;;;;;;6128922;23;20430;-89
2021/06/28 05:53:03;;;;;;;4.47;4.10;;;27.60;95.80;;;;;;6129686;23;20483;-88
2021/06/28 05:55:31;;;;;;;4.83;4.20;;;28.10;94.20;;;;;;6133608;23;20487;-89
2021/06/28 05:57:57;;;;;;;7.67;5.00;;;28.50;93.10;;;;;;6128372;23;20419;-89
2021/06/28 06:00:25;;;;;;;6.87;6.17;;;28.70;92.40;;;;;;6127226;23;20416;-88
2021/06/28 06:02:53;;;;;;;9.17;4.60;;;29.10;91.10;;;;;;6126333;23;20408;-88
2021/06/28 06:05:20;;;;;;;7.03;5.33;;;29.00;90.90;;;;;;6128177;23;20427;-88
2021/06/28 06:07:47;;;;;;;6.80;5.00;;;28.90;90.50;;;;;;6129491;23;20406;-89
2021/06/28 06:10:16;;;;;;;5.40;4.77;;;29.10;90.50;;;;;;6134037;23;20507;-87
2021/06/28 06:12:45;;;;;;;9.10;4.83;;;29.30;90.00;;;;;;6132787;23;20412;-89
2021/06/28 06:15:14;;;;;;;12.73;5.60;;;29.70;87.70;;;;;;6143228;23;20419;-88
2021/06/28 06:17:44;;;;;;;4.50;4.10;;;29.80;87.30;;;;;;6148352;23;20399;-89
2021/06/28 06:20:13;;;;;;;5.10;4.70;;;30.10;84.00;;;;;;6131885;23;20438;-89
2021/06/28 06:22:47;;;;;;;8.23;5.00;;;30.40;82.90;;;;;;6126183;23;20478;-88
2021/06/28 06:43:24;;;;;;;;;;;;;;;;;;;;;
2021/06/28 06:55:34;;;;;;;3.40;3.00;;;32.10;70.40;;;;;;6054062;23;20453;-90
2021/06/28 06:58:23;;;;;;;3.50;3.30;;;32.20;70.40;;;;;;6059698;23;20410;-90
2021/06/28 07:01:29;;;;;;;3.27;3.00;;;32.50;69.40;;;;;;6052005;23;20466;-90
2021/06/28 07:28:48;;;;;;;3.63;3.30;;;34.30;58.10;;;;;;6092600;23;20400;-89
2021/06/28 07:37:25;;;;;;;3.43;3.00;;;32.00;64.20;;;;;;6066385;23;21395;-89
2021/06/28 07:39:52;;;;;;;4.00;3.67;;;32.50;63.10;;;;;;6100018;23;20758;-88
2021/06/28 07:42:20;;;;;;;4.03;3.40;;;32.70;62.50;;;;;;6097480;23;20436;-90
2021/06/28 07:44:47;;;;;;;3.90;3.60;;;32.80;63.40;;;;;;6097823;23;20412;-89
2021/06/28 07:47:18;;;;;;;3.70;3.37;;;33.00;63.00;;;;;;6097622;23;20746;-90
2021/06/28 07:49:47;;;;;;;3.30;3.00;;;33.90;60.90;;;;;;6099685;23;20947;-89
2021/06/28 07:52:15;;;;;;;3.50;3.20;;;34.70;58.60;;;;;;6097716;23;20412;-89
2021/06/28 07:54:43;;;;;;;5.63;2.90;;;34.10;58.20;;;;;;6099781;23;20495;-88
2021/06/28 07:57:11;;;;;;;2.97;2.67;;;33.90;58.60;;;;;;6104022;23;20807;-88
2021/06/28 07:59:40;;;;;;;3.20;3.00;;;33.70;58.90;;;;;;6099701;23;20892;-88
2021/06/28 08:02:07;;;;;;;3.40;3.10;;;33.40;58.50;;;;;;6111448;23;20416;-89
2021/06/28 08:04:34;;;;;;;4.07;2.77;;;33.80;58.30;;;;;;6098109;23;20487;-89
2021/06/28 08:07:03;;;;;;;3.17;2.50;;;34.30;57.60;;;;;;6096564;23;20417;-89
2021/06/28 08:09:31;;;;;;;4.00;2.67;;;34.90;56.70;;;;;;6099781;23;20471;-89
2021/06/28 08:11:59;;;;;;;2.80;2.60;;;36.00;55.80;;;;;;6101290;23;20456;-89
2021/06/28 08:14:26;;;;;;;3.90;3.60;;;36.10;54.20;;;;;;6097492;23;20773;-89
2021/06/28 08:16:54;;;;;;;3.40;3.20;;;35.90;54.20;;;;;;6098059;23;20499;-89
2021/06/28 08:26:50;;;;;;;;;;;;;;;;;;;;;
2021/06/28 08:29:24;;;;;;;2.83;2.70;;;35.30;54.00;;;;;;6020201;23;20443;-91
2021/06/28 08:31:51;;;;;;;3.27;2.97;;;35.00;54.10;;;;;;6098209;23;20759;-89
2021/06/28 08:34:31;;;;;;;2.73;2.53;;;35.60;54.00;;;;;;6098103;23;20503;-88
2021/06/28 08:37:01;;;;;;;3.10;2.90;;;36.60;53.70;;;;;;6100452;23;20412;-89
2021/06/28 08:39:55;;;;;;;2.90;2.70;;;37.50;51.20;;;;;;6103889;23;20413;-88
2021/06/28 08:42:23;;;;;;;3.33;3.03;;;38.00;50.10;;;;;;6097667;23;20795;-89
2021/06/28 08:44:50;;;;;;;3.37;3.10;;;38.00;48.90;;;;;;6102459;23;20447;-87
2021/06/28 08:47:19;;;;;;;2.70;2.50;;;37.70;48.10;;;;;;6115988;23;20403;-87
2021/06/28 08:49:49;;;;;;;3.20;3.00;;;38.30;48.80;;;;;;6116141;23;20416;-88
2021/06/28 08:52:20;;;;;;;2.90;2.60;;;38.80;48.10;;;;;;6122598;23;20424;-89
2021/06/28 08:54:51;;;;;;;3.33;3.03;;;38.50;47.10;;;;;;6107656;23;20443;-87
2021/06/28 08:57:19;;;;;;;2.87;2.67;;;38.20;48.50;;;;;;6117242;23;20453;-87
2021/06/28 08:59:49;;;;;;;5.00;2.87;;;38.50;47.20;;;;;;6121761;23;20515;-88
2021/06/28 09:02:27;;;;;;;3.00;2.43;;;38.10;47.10;;;;;;6110248;23;20426;-87
2021/06/28 09:05:07;;;;;;;4.47;2.87;;;37.50;47.60;;;;;;6111954;23;20411;-87
2021/06/28 09:07:35;;;;;;;3.83;3.30;;;37.90;47.10;;;;;;6123663;23;20435;-89
2021/06/28 09:10:28;;;;;;;3.23;3.03;;;38.50;47.30;;;;;;6106028;23;20429;-89
2021/06/28 09:12:58;;;;;;;2.80;2.60;;;38.60;45.90;;;;;;6101287;23;20408;-88
2021/06/28 09:15:36;;;;;;;3.47;2.60;;;38.40;44.90;;;;;;6115687;23;20408;-87
2021/06/28 09:18:24;;;;;;;2.60;2.40;;;38.20;45.30;;;;;;6114616;23;20396;-88
2021/06/28 09:21:04;;;;;;;2.90;2.70;;;38.40;46.00;;;;;;6100280;23;20447;-88
2021/06/28 09:23:32;;;;;;;2.67;2.43;;;38.40;45.20;;;;;;6100546;23;20741;-87
2021/06/28 09:26:00;;;;;;;2.63;2.43;;;39.10;45.00;;;;;;6100452;23;20406;-87
2021/06/28 09:31:03;;;;;;;3.43;3.13;;;40.90;41.50;;;;;;6101267;23;20762;-89
2021/06/28 09:33:30;;;;;;;5.10;3.97;;;41.20;42.00;;;;;;6103874;23;20464;-89
2021/06/28 09:36:02;;;;;;;3.20;3.00;;;41.40;40.50;;;;;;6103945;23;20479;-89
2021/06/28 09:38:31;;;;;;;4.43;2.50;;;41.30;41.10;;;;;;6103114;23;20876;-89
2021/06/28 09:41:29;;;;;;;2.67;2.47;;;41.30;40.30;;;;;;6071493;23;20400;-89
2021/06/28 09:44:00;;;;;;;3.03;2.70;;;41.10;40.10;;;;;;6073106;23;20397;-89
2021/06/28 09:46:32;;;;;;;3.07;2.73;;;39.90;41.10;;;;;;6072359;23;20434;-89
2021/06/28 09:49:00;;;;;;;3.97;3.30;;;39.20;42.50;;;;;;6072957;23;20444;-88
2021/06/28 09:51:30;;;;;;;3.40;3.20;;;39.20;42.50;;;;;;6074589;23;20500;-89
2021/06/28 09:54:16;;;;;;;4.00;2.50;;;39.60;42.40;;;;;;6073481;23;20405;-89
2021/06/28 09:56:45;;;;;;;3.10;2.90;;;41.00;41.40;;;;;;6071681;23;20425;-89
2021/06/28 09:59:28;;;;;;;2.90;2.70;;;42.40;40.00;;;;;;6071802;23;20476;-89
2021/06/28 10:02:13;;;;;;;5.57;2.67;;;43.20;37.30;;;;;;6078356;23;20417;-89
2021/06/28 10:04:47;;;;;;;2.70;2.40;;;43.50;37.00;;;;;;6068444;23;20413;-89
2021/06/28 10:07:26;;;;;;;3.37;3.07;;;43.50;36.00;;;;;;6080189;23;20814;-89
2021/06/28 10:10:18;;;;;;;2.30;2.20;;;44.10;36.00;;;;;;6084300;23;20438;-89
2021/06/28 10:12:47;;;;;;;4.27;2.73;;;44.80;33.70;;;;;;6096497;23;20381;-91
2021/06/28 10:15:16;;;;;;;3.27;3.07;;;43.30;35.40;;;;;;6096051;23;20463;-89
2021/06/28 10:17:44;;;;;;;2.77;2.57;;;43.60;34.80;;;;;;6088425;23;20465;-88
2021/06/28 10:20:14;;;;;;;2.77;2.57;;;43.70;33.90;;;;;;6086330;23;20437;-89
2021/06/28 10:25:36;;;;;;;2.27;2.17;;;45.30;32.80;;;;;;6117664;23;20409;-89
2021/06/28 10:28:04;;;;;;;2.20;2.00;;;46.10;32.20;;;;;;6122697;23;20467;-87
2021/06/28 10:30:31;;;;;;;3.03;2.80;;;45.90;31.40;;;;;;6145837;23;20427;-88
2021/06/28 10:33:05;;;;;;;2.30;2.10;;;46.70;30.40;;;;;;6153500;23;20415;-90
2021/06/28 10:35:35;;;;;;;2.00;1.80;;;46.60;29.90;;;;;;6154159;23;20450;-90
2021/06/28 10:38:07;;;;;;;2.30;2.20;;;47.20;29.60;;;;;;6136735;23;20467;-88
2021/06/28 10:40:58;;;;;;;2.17;1.97;;;47.80;29.80;;;;;;6153614;23;20432;-91
2021/06/28 10:43:31;;;;;;;4.03;2.77;;;47.70;29.40;;;;;;6139459;23;20427;-89
2021/06/28 10:45:58;;;;;;;2.50;2.30;;;47.60;29.10;;;;;;6132351;23;20779;-88
2021/06/28 10:48:28;;;;;;;3.20;2.77;;;46.90;29.40;;;;;;6130692;23;20408;-89
2021/06/28 10:51:01;;;;;;;2.83;2.43;;;46.40;30.20;;;;;;6129054;23;20798;-89
2021/06/28 10:54:14;;;;;;;3.33;2.40;;;47.40;29.60;;;;;;6128155;23;20797;-88
2021/06/28 10:56:50;;;;;;;2.77;2.30;;;47.10;29.30;;;;;;6128774;23;20431;-88
2021/06/28 10:59:23;;;;;;;2.23;2.13;;;46.50;29.70;;;;;;6127844;23;20432;-88
2021/06/28 11:02:01;;;;;;;2.50;2.30;;;46.10;29.60;;;;;;6139619;23;20790;-90
2021/06/28 11:04:29;;;;;;;2.13;2.00;;;45.40;30.70;;;;;;6142121;23;20451;-89
2021/06/28 11:07:08;;;;;;;2.57;2.40;;;46.50;30.50;;;;;;6142086;23;20452;-89
2021/06/28 11:09:37;;;;;;;2.23;2.10;;;44.80;30.80;;;;;;6139718;23;20439;-89
2021/06/28 11:12:07;;;;;;;2.83;2.63;;;44.70;32.00;;;;;;6127490;23;20514;-89
2021/06/28 11:14:46;;;;;;;2.40;2.20;;;44.90;32.20;;;;;;6127394;23;20388;-89
2021/06/28 11:17:16;;;;;;;3.10;2.60;;;44.90;30.70;;;;;;6127281;23;20384;-89
2021/06/28 11:20:04;;;;;;;2.60;2.40;;;43.90;32.80;;;;;;6128658;23;20467;-89
2021/06/28 11:22:33;;;;;;;2.80;2.60;;;44.60;32.60;;;;;;6128616;23;20486;-89
2021/06/28 11:25:00;;;;;;;2.43;2.23;;;44.00;31.90;;;;;;6128505;23;20415;-88
2021/06/28 11:27:28;;;;;;;3.93;2.80;;;43.50;32.80;;;;;;6127507;23;20410;-88
2021/06/28 11:29:56;;;;;;;2.90;2.70;;;43.30;33.30;;;;;;6143177;23;20420;-90
2021/06/28 11:32:24;;;;;;;3.20;2.97;;;43.60;33.20;;;;;;6135370;23;20914;-90
2021/06/28 11:34:50;;;;;;;2.60;2.40;;;43.70;33.00;;;;;;6130405;23;20891;-90
2021/06/28 11:37:18;;;;;;;2.50;2.30;;;44.70;32.40;;;;;;6128236;23;20423;-90
2021/06/28 11:39:55;;;;;;;2.47;2.37;;;45.20;31.60;;;;;;6126615;23;20813;-90
2021/06/28 11:42:26;;;;;;;2.67;2.53;;;45.10;31.20;;;;;;6130107;23;20403;-89
2021/06/28 11:45:00;;;;;;;5.13;2.57;;;44.90;31.60;;;;;;6128862;23;20783;-89
2021/06/28 11:48:12;;;;;;;3.20;2.90;;;45.40;31.20;;;;;;6128469;23;20479;-89
2021/06/28 11:50:41;;;;;;;2.07;1.97;;;45.70;30.60;;;;;;6090222;23;20432;-89
2021/06/28 11:53:09;;;;;;;2.57;2.37;;;45.60;31.00;;;;;;6133648;23;20400;-89
2021/06/28 11:55:38;;;;;;;2.10;2.00;;;46.20;30.40;;;;;;6130007;23;20450;-90
2021/06/28 11:58:05;;;;;;;2.60;2.40;;;44.80;31.00;;;;;;6129163;23;20414;-89
2021/06/28 12:00:34;;;;;;;3.37;2.83;;;44.20;32.80;;;;;;6128373;23;20432;-88
2021/06/28 12:03:14;;;;;;;3.07;2.83;;;43.70;32.60;;;;;;6128949;23;20407;-88
2021/06/28 12:05:42;;;;;;;2.87;2.67;;;42.20;34.20;;;;;;6130071;23;20395;-90
2021/06/28 12:08:48;;;;;;;2.60;2.50;;;42.10;35.40;;;;;;6134909;23;20396;-89
2021/06/28 12:11:15;;;;;;;3.23;2.70;;;42.00;35.20;;;;;;6149354;23;20398;-90
2021/06/28 12:13:44;;;;;;;2.70;2.40;;;42.30;34.90;;;;;;6137021;23;20412;-90
2021/06/28 12:16:21;;;;;;;4.63;3.20;;;43.20;34.40;;;;;;6130446;23;20474;-90
2021/06/28 12:18:49;;;;;;;3.50;2.77;;;43.60;33.90;;;;;;6132287;23;20380;-90
2021/06/28 12:21:27;;;;;;;2.77;2.60;;;43.60;33.00;;;;;;6130084;23;20411;-89
2021/06/28 12:24:03;;;;;;;4.00;3.23;;;43.70;33.30;;;;;;6147379;23;20411;-90
2021/06/28 12:26:30;;;;;;;2.83;2.63;;;44.30;32.80;;;;;;6149028;23;20388;-90
2021/06/28 12:28:57;;;;;;;2.10;2.00;;;44.80;32.50;;;;;;6140819;23;20461;-90
2021/06/28 12:31:25;;;;;;;3.73;3.53;;;45.10;31.90;;;;;;6138613;23;20407;-90
2021/06/28 12:33:55;;;;;;;2.97;2.77;;;46.40;30.30;;;;;;6130998;23;20387;-90
2021/06/28 12:36:23;;;;;;;3.00;2.77;;;46.70;29.90;;;;;;6132640;23;20443;-90
2021/06/28 12:38:59;;;;;;;2.90;2.70;;;45.90;30.30;;;;;;6141537;23;20391;-91
2021/06/28 12:41:26;;;;;;;2.80;2.60;;;45.00;31.50;;;;;;6134101;23;20850;-90
2021/06/28 12:43:54;;;;;;;2.93;2.70;;;44.20;32.10;;;;;;6137662;23;20411;-92
2021/06/28 12:46:21;;;;;;;3.60;2.60;;;44.90;31.90;;;;;;6137167;23;20418;-91
2021/06/28 12:48:50;;;;;;;2.90;2.73;;;44.50;32.10;;;;;;6132872;23;20419;-91
2021/06/28 12:51:21;;;;;;;3.23;3.03;;;44.60;32.80;;;;;;6130450;23;20396;-91
2021/06/28 12:53:49;;;;;;;3.10;2.90;;;43.30;33.80;;;;;;6133896;23;20392;-90
2021/06/28 12:56:19;;;;;;;3.07;2.87;;;43.40;34.10;;;;;;6132066;23;20510;-90
2021/06/28 12:58:52;;;;;;;3.17;2.87;;;43.20;33.60;;;;;;6132129;23;20415;-90
2021/06/28 13:01:31;;;;;;;2.87;2.67;;;42.90;34.10;;;;;;6139292;23;20451;-91
2021/06/28 13:04:23;;;;;;;3.63;2.57;;;43.10;34.60;;;;;;6144467;23;20407;-92
2021/06/28 13:06:55;;;;;;;2.93;2.73;;;43.10;34.50;;;;;;6129471;23;20403;-90
2021/06/28 13:09:26;;;;;;;3.60;3.30;;;42.60;34.40;;;;;;6130939;23;20518;-90
2021/06/28 13:12:01;;;;;;;3.10;2.90;;;42.70;34.90;;;;;;6131785;23;20397;-90
2021/06/28 13:14:56;;;;;;;3.73;3.43;;;43.40;33.80;;;;;;6135013;23;20465;-91
2021/06/28 13:17:31;;;;;;;3.40;3.10;;;43.00;34.40;;;;;;6093846;23;20450;-91
2021/06/28 13:20:18;;;;;;;3.43;3.23;;;41.80;35.60;;;;;;6135852;23;20434;-91
2021/06/28 13:22:46;;;;;;;3.60;3.30;;;40.70;37.60;;;;;;6138034;23;20474;-91
2021/06/28 13:25:43;;;;;;;3.17;2.97;;;41.80;37.00;;;;;;6141783;23;20434;-90
2021/06/28 13:28:13;;;;;;;2.97;2.73;;;42.30;35.30;;;;;;6143885;23;20399;-89
2021/06/28 13:30:42;;;;;;;3.40;3.20;;;42.30;35.80;;;;;;6149967;23;20433;-90
2021/06/28 13:33:23;;;;;;;3.67;3.37;;;42.20;35.80;;;;;;6144611;23;20393;-89
2021/06/28 13:35:51;;;;;;;2.73;2.53;;;41.40;36.20;;;;;;6150419;23;20437;-87
2021/06/28 13:38:19;;;;;;;4.50;4.10;;;40.80;37.50;;;;;;6132728;23;20442;-89
2021/06/28 13:40:56;;;;;;;3.53;3.23;;;40.10;38.20;;;;;;6132575;23;20439;-88
2021/06/28 13:43:24;;;;;;;3.47;3.17;;;40.00;38.70;;;;;;6144916;23;20384;-89
2021/06/28 13:45:51;;;;;;;3.80;3.47;;;40.00;39.00;;;;;;6136826;23;20454;-90
2021/06/28 13:48:18;;;;;;;2.93;2.63;;;39.80;39.20;;;;;;6129474;23;20510;-86
2021/06/28 13:50:46;;;;;;;3.80;3.50;;;39.60;40.30;;;;;;6131461;23;20428;-86
2021/06/28 13:53:16;;;;;;;3.63;3.30;;;38.90;41.00;;;;;;6132202;23;20414;-86
2021/06/28 13:55:47;;;;;;;3.83;3.53;;;38.90;42.10;;;;;;6129395;23;20388;-86
2021/06/28 13:58:19;;;;;;;3.80;3.50;;;39.50;41.20;;;;;;6129626;23;20883;-85
2021/06/28 14:00:47;;;;;;;3.87;3.50;;;39.90;40.20;;;;;;6131388;23;20432;-85
2021/06/28 14:03:16;;;;;;;3.83;3.53;;;40.40;39.70;;;;;;6138025;23;20730;-85
2021/06/28 14:05:44;;;;;;;3.83;3.53;;;40.10;40.40;;;;;;6144386;23;20408;-90
2021/06/28 14:08:12;;;;;;;4.67;4.27;;;40.20;39.60;;;;;;6153486;23;20415;-90
2021/06/28 14:10:40;;;;;;;3.33;3.13;;;39.90;39.60;;;;;;6134319;23;20432;-90
2021/06/28 14:13:12;;;;;;;3.20;3.00;;;39.50;39.90;;;;;;6135914;23;20422;-90
2021/06/28 14:15:46;;;;;;;4.50;3.20;;;39.10;41.30;;;;;;6135098;23;20424;-90